sensor_id;sensor_type;location;lat;lon;timestamp;temperature;humidity
58519;DHT22;44310;48.106;12.008;2022-12-18T00:01:24;15.70;95.90
58519;DHT22;44310;48.106;12.008;2022-12-18T00:03:52;15.70;95.80
58519;DHT22;44310;48.106;12.008;2022-12-18T00:06:21;15.70;95.80
58519;DHT22;44310;48.106;12.008;2022-12-18T00:08:48;15.70;95.80
58519;DHT22;44310;48.106;12.008;2022-12-18T00:11:18;16.20;95.90
58519;DHT22;44310;48.106;12.008;2022-12-18T00:13:46;15.70;95.80
58519;DHT22;44310;48.106;12.008;2022-12-18T00:16:19;15.80;95.80
58519;DHT22;44310;48.106;12.008;2022-12-18T00:18:49;15.50;94.20
58519;DHT22;44310;48.106;12.008;2022-12-18T00:21:16;14.50;82.70
58519;DHT22;44310;48.106;12.008;2022-12-18T00:23:44;13.30;78.30
58519;DHT22;44310;48.106;12.008;2022-12-18T00:26:14;12.00;67.20
58519;DHT22;44310;48.106;12.008;2022-12-18T00:28:42;11.10;75.10
58519;DHT22;44310;48.106;12.008;2022-12-18T00:31:13;11.30;87.90
58519;DHT22;44310;48.106;12.008;2022-12-18T00:33:40;12.00;90.90
58519;DHT22;44310;48.106;12.008;2022-12-18T00:36:17;12.60;91.90
58519;DHT22;44310;48.106;12.008;2022-12-18T00:38:45;13.00;91.00
58519;DHT22;44310;48.106;12.008;2022-12-18T00:41:14;13.40;90.50
58519;DHT22;44310;48.106;12.008;2022-12-18T00:44:02;13.70;90.20
58519;DHT22;44310;48.106;12.008;2022-12-18T00:46:29;13.90;90.20
58519;DHT22;44310;48.106;12.008;2022-12-18T00:48:57;14.10;90.20
58519;DHT22;44310;48.106;12.008;2022-12-18T00:51:25;14.30;90.30
58519;DHT22;44310;48.106;12.008;2022-12-18T00:53:53;14.40;90.40
58519;DHT22;44310;48.106;12.008;2022-12-18T00:56:20;14.60;90.50
58519;DHT22;44310;48.106;12.008;2022-12-18T00:58:48;14.60;90.80
58519;DHT22;44310;48.106;12.008;2022-12-18T01:01:15;14.70;90.90
58519;DHT22;44310;48.106;12.008;2022-12-18T01:03:43;15.20;91.10
58519;DHT22;44310;48.106;12.008;2022-12-18T01:06:13;14.90;91.30
58519;DHT22;44310;48.106;12.008;2022-12-18T01:08:40;15.00;91.50
58519;DHT22;44310;48.106;12.008;2022-12-18T01:11:13;15.00;91.60
58519;DHT22;44310;48.106;12.008;2022-12-18T01:13:41;15.10;91.90
58519;DHT22;44310;48.106;12.008;2022-12-18T01:16:10;15.10;92.00
58519;DHT22;44310;48.106;12.008;2022-12-18T01:18:38;15.20;91.80
58519;DHT22;44310;48.106;12.008;2022-12-18T01:21:09;15.10;91.90
58519;DHT22;44310;48.106;12.008;2022-12-18T01:23:37;15.20;92.10
58519;DHT22;44310;48.106;12.008;2022-12-18T01:26:10;15.20;92.20
58519;DHT22;44310;48.106;12.008;2022-12-18T01:28:38;15.20;92.40
58519;DHT22;44310;48.106;12.008;2022-12-18T01:31:27;15.30;92.40
58519;DHT22;44310;48.106;12.008;2022-12-18T01:33:55;15.30;92.50
58519;DHT22;44310;48.106;12.008;2022-12-18T01:36:34;15.30;92.50
58519;DHT22;44310;48.106;12.008;2022-12-18T01:39:04;15.30;92.50
58519;DHT22;44310;48.106;12.008;2022-12-18T01:41:33;15.30;92.60
58519;DHT22;44310;48.106;12.008;2022-12-18T01:49:56;15.30;92.70
58519;DHT22;44310;48.106;12.008;2022-12-18T01:52:25;15.20;92.80
58519;DHT22;44310;48.106;12.008;2022-12-18T01:54:53;15.20;92.80
58519;DHT22;44310;48.106;12.008;2022-12-18T01:57:22;15.20;92.80
58519;DHT22;44310;48.106;12.008;2022-12-18T01:59:52;15.80;93.00
58519;DHT22;44310;48.106;12.008;2022-12-18T02:02:21;15.30;93.30
58519;DHT22;44310;48.106;12.008;2022-12-18T02:04:48;15.30;93.30
58519;DHT22;44310;48.106;12.008;2022-12-18T02:07:37;15.30;93.30
58519;DHT22;44310;48.106;12.008;2022-12-18T02:18:33;15.40;93.60
58519;DHT22;44310;48.106;12.008;2022-12-18T02:21:20;15.40;93.60
58519;DHT22;44310;48.106;12.008;2022-12-18T02:24:29;15.50;93.70
58519;DHT22;44310;48.106;12.008;2022-12-18T02:27:04;15.50;93.70
58519;DHT22;44310;48.106;12.008;2022-12-18T02:29:40;15.50;93.80
58519;DHT22;44310;48.106;12.008;2022-12-18T02:32:15;15.40;93.80
58519;DHT22;44310;48.106;12.008;2022-12-18T02:34:44;15.40;93.80
58519;DHT22;44310;48.106;12.008;2022-12-18T02:37:16;15.50;93.80
58519;DHT22;44310;48.106;12.008;2022-12-18T02:39:47;15.50;93.90
58519;DHT22;44310;48.106;12.008;2022-12-18T02:42:16;15.40;93.90
58519;DHT22;44310;48.106;12.008;2022-12-18T02:44:48;15.40;93.90
58519;DHT22;44310;48.106;12.008;2022-12-18T02:47:19;15.50;93.90
58519;DHT22;44310;48.106;12.008;2022-12-18T02:50:08;15.50;93.90
58519;DHT22;44310;48.106;12.008;2022-12-18T02:55:23;15.40;93.90
58519;DHT22;44310;48.106;12.008;2022-12-18T02:57:56;15.40;93.90
58519;DHT22;44310;48.106;12.008;2022-12-18T03:00:41;15.40;93.90
58519;DHT22;44310;48.106;12.008;2022-12-18T03:05:43;15.40;93.90
58519;DHT22;44310;48.106;12.008;2022-12-18T03:08:18;15.40;93.90
58519;DHT22;44310;48.106;12.008;2022-12-18T03:10:51;15.40;93.90
58519;DHT22;44310;48.106;12.008;2022-12-18T03:15:59;15.40;93.90
58519;DHT22;44310;48.106;12.008;2022-12-18T03:18:35;15.40;93.90
58519;DHT22;44310;48.106;12.008;2022-12-18T03:21:06;15.40;93.90
58519;DHT22;44310;48.106;12.008;2022-12-18T03:23:42;15.40;93.90
58519;DHT22;44310;48.106;12.008;2022-12-18T03:26:16;15.40;94.00
58519;DHT22;44310;48.106;12.008;2022-12-18T03:28:49;15.40;94.00
58519;DHT22;44310;48.106;12.008;2022-12-18T03:31:18;15.40;94.10
58519;DHT22;44310;48.106;12.008;2022-12-18T03:33:54;15.50;94.30
58519;DHT22;44310;48.106;12.008;2022-12-18T03:36:23;15.50;94.40
58519;DHT22;44310;48.106;12.008;2022-12-18T03:38:51;15.50;94.50
58519;DHT22;44310;48.106;12.008;2022-12-18T03:41:31;15.50;94.60
58519;DHT22;44310;48.106;12.008;2022-12-18T03:46:54;15.60;94.90
58519;DHT22;44310;48.106;12.008;2022-12-18T03:49:35;15.60;94.90
58519;DHT22;44310;48.106;12.008;2022-12-18T03:52:14;15.60;95.10
58519;DHT22;44310;48.106;12.008;2022-12-18T03:54:44;15.60;95.10
58519;DHT22;44310;48.106;12.008;2022-12-18T03:57:21;15.50;95.00
58519;DHT22;44310;48.106;12.008;2022-12-18T03:59:56;15.50;95.00
58519;DHT22;44310;48.106;12.008;2022-12-18T04:02:24;15.50;95.10
58519;DHT22;44310;48.106;12.008;2022-12-18T04:04:53;15.50;95.10
58519;DHT22;44310;48.106;12.008;2022-12-18T04:07:24;15.50;95.10
58519;DHT22;44310;48.106;12.008;2022-12-18T04:09:55;15.50;95.20
58519;DHT22;44310;48.106;12.008;2022-12-18T04:12:27;15.40;95.30
58519;DHT22;44310;48.106;12.008;2022-12-18T04:14:55;15.40;95.30
58519;DHT22;44310;48.106;12.008;2022-12-18T04:17:23;15.40;95.40
58519;DHT22;44310;48.106;12.008;2022-12-18T04:19:50;15.40;95.40
58519;DHT22;44310;48.106;12.008;2022-12-18T04:22:17;15.40;95.40
58519;DHT22;44310;48.106;12.008;2022-12-18T04:24:44;15.40;95.50
58519;DHT22;44310;48.106;12.008;2022-12-18T04:27:11;15.40;95.50
58519;DHT22;44310;48.106;12.008;2022-12-18T04:29:39;15.40;95.50
58519;DHT22;44310;48.106;12.008;2022-12-18T04:32:07;15.80;95.60
58519;DHT22;44310;48.106;12.008;2022-12-18T04:34:34;15.40;95.50
58519;DHT22;44310;48.106;12.008;2022-12-18T04:37:01;15.40;95.50
58519;DHT22;44310;48.106;12.008;2022-12-18T04:39:28;15.40;95.50
58519;DHT22;44310;48.106;12.008;2022-12-18T04:41:55;15.40;95.50
58519;DHT22;44310;48.106;12.008;2022-12-18T04:44:23;15.40;95.50
58519;DHT22;44310;48.106;12.008;2022-12-18T04:46:50;15.40;95.50
58519;DHT22;44310;48.106;12.008;2022-12-18T04:49:17;15.30;95.40
58519;DHT22;44310;48.106;12.008;2022-12-18T04:51:44;15.30;95.40
58519;DHT22;44310;48.106;12.008;2022-12-18T04:54:11;15.30;95.30
58519;DHT22;44310;48.106;12.008;2022-12-18T04:56:38;15.30;95.30
58519;DHT22;44310;48.106;12.008;2022-12-18T04:59:05;15.50;95.60
58519;DHT22;44310;48.106;12.008;2022-12-18T05:01:34;15.40;95.70
58519;DHT22;44310;48.106;12.008;2022-12-18T05:04:02;15.50;95.70
58519;DHT22;44310;48.106;12.008;2022-12-18T05:06:29;15.50;95.70
58519;DHT22;44310;48.106;12.008;2022-12-18T05:08:57;15.50;95.70
58519;DHT22;44310;48.106;12.008;2022-12-18T05:11:24;15.50;95.70
58519;DHT22;44310;48.106;12.008;2022-12-18T05:13:51;15.50;95.60
58519;DHT22;44310;48.106;12.008;2022-12-18T05:16:18;15.50;95.60
58519;DHT22;44310;48.106;12.008;2022-12-18T05:18:45;15.80;95.70
58519;DHT22;44310;48.106;12.008;2022-12-18T05:21:12;15.50;95.50
58519;DHT22;44310;48.106;12.008;2022-12-18T05:23:39;15.50;95.40
58519;DHT22;44310;48.106;12.008;2022-12-18T05:26:07;15.40;95.30
58519;DHT22;44310;48.106;12.008;2022-12-18T05:28:36;15.50;95.30
58519;DHT22;44310;48.106;12.008;2022-12-18T05:31:04;15.40;95.30
58519;DHT22;44310;48.106;12.008;2022-12-18T05:33:33;15.40;95.30
58519;DHT22;44310;48.106;12.008;2022-12-18T05:36:02;15.40;95.40
58519;DHT22;44310;48.106;12.008;2022-12-18T05:38:31;15.50;95.60
58519;DHT22;44310;48.106;12.008;2022-12-18T05:40:58;15.50;95.60
58519;DHT22;44310;48.106;12.008;2022-12-18T05:43:26;15.50;95.70
58519;DHT22;44310;48.106;12.008;2022-12-18T05:45:54;15.90;95.80
58519;DHT22;44310;48.106;12.008;2022-12-18T05:48:21;15.60;95.70
58519;DHT22;44310;48.106;12.008;2022-12-18T05:50:49;15.50;95.80
58519;DHT22;44310;48.106;12.008;2022-12-18T05:53:18;15.60;95.90
58519;DHT22;44310;48.106;12.008;2022-12-18T05:55:46;15.50;96.20
58519;DHT22;44310;48.106;12.008;2022-12-18T05:58:13;15.60;96.00
58519;DHT22;44310;48.106;12.008;2022-12-18T06:00:43;15.50;95.90
58519;DHT22;44310;48.106;12.008;2022-12-18T06:03:11;15.50;95.80
58519;DHT22;44310;48.106;12.008;2022-12-18T06:05:44;15.50;95.80
58519;DHT22;44310;48.106;12.008;2022-12-18T06:08:12;15.50;95.90
58519;DHT22;44310;48.106;12.008;2022-12-18T06:10:40;15.50;95.90
58519;DHT22;44310;48.106;12.008;2022-12-18T06:13:08;15.50;95.90
58519;DHT22;44310;48.106;12.008;2022-12-18T06:15:38;15.50;95.90
58519;DHT22;44310;48.106;12.008;2022-12-18T06:18:05;15.50;95.90
58519;DHT22;44310;48.106;12.008;2022-12-18T06:20:33;15.50;95.90
58519;DHT22;44310;48.106;12.008;2022-12-18T06:23:00;15.50;95.90
58519;DHT22;44310;48.106;12.008;2022-12-18T06:25:27;15.50;95.80
58519;DHT22;44310;48.106;12.008;2022-12-18T06:27:54;15.50;95.80
58519;DHT22;44310;48.106;12.008;2022-12-18T06:30:21;15.40;95.80
58519;DHT22;44310;48.106;12.008;2022-12-18T06:32:49;15.50;96.10
58519;DHT22;44310;48.106;12.008;2022-12-18T06:35:25;15.60;96.20
58519;DHT22;44310;48.106;12.008;2022-12-18T06:37:52;15.60;96.10
58519;DHT22;44310;48.106;12.008;2022-12-18T06:40:20;15.60;96.20
58519;DHT22;44310;48.106;12.008;2022-12-18T06:42:47;15.60;96.10
58519;DHT22;44310;48.106;12.008;2022-12-18T06:45:14;15.60;96.10
58519;DHT22;44310;48.106;12.008;2022-12-18T06:47:41;15.60;96.10
58519;DHT22;44310;48.106;12.008;2022-12-18T06:50:08;15.60;96.40
58519;DHT22;44310;48.106;12.008;2022-12-18T06:52:36;15.60;96.10
58519;DHT22;44310;48.106;12.008;2022-12-18T06:55:04;15.60;96.20
58519;DHT22;44310;48.106;12.008;2022-12-18T06:57:31;15.60;96.10
58519;DHT22;44310;48.106;12.008;2022-12-18T06:59:58;15.60;96.10
58519;DHT22;44310;48.106;12.008;2022-12-18T07:02:25;15.60;96.10
58519;DHT22;44310;48.106;12.008;2022-12-18T07:04:52;15.60;96.10
58519;DHT22;44310;48.106;12.008;2022-12-18T07:07:19;15.60;96.10
58519;DHT22;44310;48.106;12.008;2022-12-18T07:09:46;15.60;96.10
58519;DHT22;44310;48.106;12.008;2022-12-18T07:12:13;15.60;96.10
58519;DHT22;44310;48.106;12.008;2022-12-18T07:14:41;15.60;96.10
58519;DHT22;44310;48.106;12.008;2022-12-18T07:17:08;15.60;96.10
58519;DHT22;44310;48.106;12.008;2022-12-18T07:19:35;15.60;96.00
58519;DHT22;44310;48.106;12.008;2022-12-18T07:22:02;15.60;96.00
58519;DHT22;44310;48.106;12.008;2022-12-18T07:24:30;15.60;95.90
58519;DHT22;44310;48.106;12.008;2022-12-18T07:26:58;15.60;95.90
58519;DHT22;44310;48.106;12.008;2022-12-18T07:29:26;15.60;95.80
58519;DHT22;44310;48.106;12.008;2022-12-18T07:31:53;15.60;95.80
58519;DHT22;44310;48.106;12.008;2022-12-18T07:34:20;15.60;95.80
58519;DHT22;44310;48.106;12.008;2022-12-18T07:36:47;15.60;95.70
58519;DHT22;44310;48.106;12.008;2022-12-18T07:39:14;15.60;95.70
58519;DHT22;44310;48.106;12.008;2022-12-18T07:41:41;15.50;95.70
58519;DHT22;44310;48.106;12.008;2022-12-18T07:44:13;15.60;95.70
58519;DHT22;44310;48.106;12.008;2022-12-18T07:46:40;15.60;95.70
58519;DHT22;44310;48.106;12.008;2022-12-18T07:49:07;15.60;95.70
58519;DHT22;44310;48.106;12.008;2022-12-18T07:51:34;15.60;95.70
58519;DHT22;44310;48.106;12.008;2022-12-18T07:54:01;15.50;95.70
58519;DHT22;44310;48.106;12.008;2022-12-18T07:56:28;15.60;95.70
58519;DHT22;44310;48.106;12.008;2022-12-18T07:58:58;15.60;95.70
58519;DHT22;44310;48.106;12.008;2022-12-18T08:01:26;15.60;95.70
58519;DHT22;44310;48.106;12.008;2022-12-18T08:03:54;15.60;95.70
58519;DHT22;44310;48.106;12.008;2022-12-18T08:06:21;15.60;95.70
58519;DHT22;44310;48.106;12.008;2022-12-18T08:08:54;15.60;95.70
58519;DHT22;44310;48.106;12.008;2022-12-18T08:11:25;15.60;95.70
58519;DHT22;44310;48.106;12.008;2022-12-18T08:13:52;15.60;95.70
58519;DHT22;44310;48.106;12.008;2022-12-18T08:16:20;15.60;95.70
58519;DHT22;44310;48.106;12.008;2022-12-18T08:18:47;15.60;95.70
58519;DHT22;44310;48.106;12.008;2022-12-18T08:21:24;15.50;95.50
58519;DHT22;44310;48.106;12.008;2022-12-18T08:23:53;15.60;95.60
58519;DHT22;44310;48.106;12.008;2022-12-18T08:26:21;15.60;95.50
58519;DHT22;44310;48.106;12.008;2022-12-18T08:28:49;15.30;92.40
58519;DHT22;44310;48.106;12.008;2022-12-18T08:31:18;14.00;77.50
58519;DHT22;44310;48.106;12.008;2022-12-18T08:33:48;12.60;76.40
58519;DHT22;44310;48.106;12.008;2022-12-18T08:36:16;12.40;80.80
58519;DHT22;44310;48.106;12.008;2022-12-18T08:38:43;13.10;86.90
58519;DHT22;44310;48.106;12.008;2022-12-18T08:41:12;12.70;88.70
58519;DHT22;44310;48.106;12.008;2022-12-18T08:43:40;13.10;90.00
58519;DHT22;44310;48.106;12.008;2022-12-18T08:46:27;13.50;90.40
58519;DHT22;44310;48.106;12.008;2022-12-18T08:48:58;13.90;90.50
58519;DHT22;44310;48.106;12.008;2022-12-18T08:51:25;14.20;90.80
58519;DHT22;44310;48.106;12.008;2022-12-18T08:53:52;14.30;91.00
58519;DHT22;44310;48.106;12.008;2022-12-18T08:56:19;14.50;91.20
58519;DHT22;44310;48.106;12.008;2022-12-18T08:58:46;15.00;91.60
58519;DHT22;44310;48.106;12.008;2022-12-18T09:01:13;14.80;91.50
58519;DHT22;44310;48.106;12.008;2022-12-18T09:03:41;15.10;92.10
58519;DHT22;44310;48.106;12.008;2022-12-18T09:06:09;14.90;92.00
58519;DHT22;44310;48.106;12.008;2022-12-18T09:08:36;14.90;92.10
58519;DHT22;44310;48.106;12.008;2022-12-18T09:11:25;15.30;92.30
58519;DHT22;44310;48.106;12.008;2022-12-18T09:13:54;15.10;92.30
58519;DHT22;44310;48.106;12.008;2022-12-18T09:16:23;15.10;92.40
58519;DHT22;44310;48.106;12.008;2022-12-18T09:18:58;15.20;92.50
58519;DHT22;44310;48.106;12.008;2022-12-18T09:21:31;15.20;92.70
58519;DHT22;44310;48.106;12.008;2022-12-18T09:24:03;15.60;92.80
58519;DHT22;44310;48.106;12.008;2022-12-18T09:26:31;15.30;92.90
58519;DHT22;44310;48.106;12.008;2022-12-18T09:28:58;15.30;92.90
58519;DHT22;44310;48.106;12.008;2022-12-18T09:31:25;15.30;93.00
58519;DHT22;44310;48.106;12.008;2022-12-18T09:33:52;15.30;93.10
58519;DHT22;44310;48.106;12.008;2022-12-18T09:36:21;15.40;93.10
58519;DHT22;44310;48.106;12.008;2022-12-18T09:38:48;16.20;93.40
58519;DHT22;44310;48.106;12.008;2022-12-18T09:41:51;15.40;93.30
58519;DHT22;44310;48.106;12.008;2022-12-18T09:44:27;15.40;93.40
58519;DHT22;44310;48.106;12.008;2022-12-18T09:47:11;15.40;93.50
58519;DHT22;44310;48.106;12.008;2022-12-18T09:49:45;15.40;93.50
58519;DHT22;44310;48.106;12.008;2022-12-18T09:52:28;15.40;93.70
58519;DHT22;44310;48.106;12.008;2022-12-18T09:55:05;15.50;93.70
58519;DHT22;44310;48.106;12.008;2022-12-18T09:57:42;15.50;93.70
58519;DHT22;44310;48.106;12.008;2022-12-18T10:00:17;15.80;93.90
58519;DHT22;44310;48.106;12.008;2022-12-18T10:02:46;15.50;93.80
58519;DHT22;44310;48.106;12.008;2022-12-18T10:05:17;15.50;93.90
58519;DHT22;44310;48.106;12.008;2022-12-18T10:07:55;15.60;94.00
58519;DHT22;44310;48.106;12.008;2022-12-18T10:13:12;15.60;94.10
58519;DHT22;44310;48.106;12.008;2022-12-18T10:18:25;15.60;94.20
58519;DHT22;44310;48.106;12.008;2022-12-18T10:21:02;15.60;94.50
58519;DHT22;44310;48.106;12.008;2022-12-18T10:23:41;15.80;94.50
58519;DHT22;44310;48.106;12.008;2022-12-18T10:26:14;15.60;94.60
58519;DHT22;44310;48.106;12.008;2022-12-18T10:28:43;15.90;94.70
58519;DHT22;44310;48.106;12.008;2022-12-18T10:31:19;15.60;94.70
58519;DHT22;44310;48.106;12.008;2022-12-18T10:33:51;15.60;94.80
58519;DHT22;44310;48.106;12.008;2022-12-18T10:36:23;15.60;94.80
58519;DHT22;44310;48.106;12.008;2022-12-18T10:38:51;15.90;94.90
58519;DHT22;44310;48.106;12.008;2022-12-18T10:43:48;15.60;95.00
58519;DHT22;44310;48.106;12.008;2022-12-18T10:46:20;15.60;95.00
58519;DHT22;44310;48.106;12.008;2022-12-18T10:48:52;15.60;95.10
58519;DHT22;44310;48.106;12.008;2022-12-18T10:51:31;15.50;95.10
58519;DHT22;44310;48.106;12.008;2022-12-18T10:54:14;15.60;95.10
58519;DHT22;44310;48.106;12.008;2022-12-18T10:56:43;15.60;95.10
58519;DHT22;44310;48.106;12.008;2022-12-18T10:59:14;15.60;95.10
58519;DHT22;44310;48.106;12.008;2022-12-18T11:01:53;15.70;95.20
58519;DHT22;44310;48.106;12.008;2022-12-18T11:04:30;15.70;95.20
58519;DHT22;44310;48.106;12.008;2022-12-18T11:07:08;15.70;95.20
58519;DHT22;44310;48.106;12.008;2022-12-18T11:09:36;15.70;95.20
58519;DHT22;44310;48.106;12.008;2022-12-18T11:12:15;15.70;95.30
58519;DHT22;44310;48.106;12.008;2022-12-18T11:14:49;15.70;95.30
58519;DHT22;44310;48.106;12.008;2022-12-18T11:17:29;15.70;95.30
58519;DHT22;44310;48.106;12.008;2022-12-18T11:19:59;15.70;95.40
58519;DHT22;44310;48.106;12.008;2022-12-18T11:22:28;15.70;95.40
58519;DHT22;44310;48.106;12.008;2022-12-18T11:25:22;15.60;95.50
58519;DHT22;44310;48.106;12.008;2022-12-18T11:28:04;15.70;95.50
58519;DHT22;44310;48.106;12.008;2022-12-18T11:30:34;15.70;95.50
58519;DHT22;44310;48.106;12.008;2022-12-18T11:33:20;15.70;95.40
58519;DHT22;44310;48.106;12.008;2022-12-18T11:35:51;15.70;95.50
58519;DHT22;44310;48.106;12.008;2022-12-18T11:38:24;15.70;95.60
58519;DHT22;44310;48.106;12.008;2022-12-18T11:41:04;15.70;95.60
58519;DHT22;44310;48.106;12.008;2022-12-18T11:43:40;15.80;95.70
58519;DHT22;44310;48.106;12.008;2022-12-18T11:46:15;15.60;95.50
58519;DHT22;44310;48.106;12.008;2022-12-18T11:48:54;15.60;95.50
58519;DHT22;44310;48.106;12.008;2022-12-18T11:51:41;15.70;95.80
58519;DHT22;44310;48.106;12.008;2022-12-18T11:54:13;15.70;95.90
58519;DHT22;44310;48.106;12.008;2022-12-18T11:57:13;15.80;96.10
58519;DHT22;44310;48.106;12.008;2022-12-18T12:00:00;15.90;96.40
58519;DHT22;44310;48.106;12.008;2022-12-18T12:02:49;15.90;96.60
58519;DHT22;44310;48.106;12.008;2022-12-18T12:08:49;16.00;97.00
58519;DHT22;44310;48.106;12.008;2022-12-18T12:11:02;16.00;97.80
58519;DHT22;44310;48.106;12.008;2022-12-18T12:13:46;15.80;97.20
58519;DHT22;44310;48.106;12.008;2022-12-18T12:16:29;15.60;96.90
58519;DHT22;44310;48.106;12.008;2022-12-18T12:19:07;15.50;95.80
58519;DHT22;44310;48.106;12.008;2022-12-18T12:21:52;15.20;95.60
58519;DHT22;44310;48.106;12.008;2022-12-18T12:24:48;15.10;96.00
58519;DHT22;44310;48.106;12.008;2022-12-18T12:30:20;15.00;96.20
58519;DHT22;44310;48.106;12.008;2022-12-18T12:32:55;14.90;96.20
58519;DHT22;44310;48.106;12.008;2022-12-18T12:36:00;14.80;95.80
58519;DHT22;44310;48.106;12.008;2022-12-18T12:38:40;14.30;89.00
58519;DHT22;44310;48.106;12.008;2022-12-18T12:41:17;13.00;82.20
58519;DHT22;44310;48.106;12.008;2022-12-18T12:44:19;12.80;88.60
58519;DHT22;44310;48.106;12.008;2022-12-18T12:46:52;13.10;91.00
58519;DHT22;44310;48.106;12.008;2022-12-18T12:49:27;13.20;91.20
58519;DHT22;44310;48.106;12.008;2022-12-18T12:52:00;13.40;91.40
58519;DHT22;44310;48.106;12.008;2022-12-18T12:54:31;13.60;91.10
58519;DHT22;44310;48.106;12.008;2022-12-18T12:57:08;13.80;93.90
58519;DHT22;44310;48.106;12.008;2022-12-18T13:07:41;12.30;82.40
58519;DHT22;44310;48.106;12.008;2022-12-18T13:15:25;13.20;90.20
58519;DHT22;44310;48.106;12.008;2022-12-18T13:18:19;13.50;90.40
58519;DHT22;44310;48.106;12.008;2022-12-18T13:21:16;13.70;90.90
58519;DHT22;44310;48.106;12.008;2022-12-18T13:23:46;14.00;91.40
58519;DHT22;44310;48.106;12.008;2022-12-18T13:34:24;13.50;68.00
58519;DHT22;44310;48.106;12.008;2022-12-18T13:37:42;11.60;61.70
58519;DHT22;44310;48.106;12.008;2022-12-18T13:39:43;10.30;63.40
58519;DHT22;44310;48.106;12.008;2022-12-18T13:44:58;11.10;81.30
58519;DHT22;44310;48.106;12.008;2022-12-18T13:47:36;11.30;74.50
58519;DHT22;44310;48.106;12.008;2022-12-18T13:50:23;11.50;74.20
58519;DHT22;44310;48.106;12.008;2022-12-18T13:52:58;11.90;76.30
58519;DHT22;44310;48.106;12.008;2022-12-18T13:55:26;12.40;77.20
58519;DHT22;44310;48.106;12.008;2022-12-18T13:58:04;12.70;77.90
58519;DHT22;44310;48.106;12.008;2022-12-18T14:00:31;13.20;80.10
58519;DHT22;44310;48.106;12.008;2022-12-18T14:02:59;13.50;80.20
58519;DHT22;44310;48.106;12.008;2022-12-18T14:05:30;13.70;82.70
58519;DHT22;44310;48.106;12.008;2022-12-18T14:08:05;13.90;82.60
58519;DHT22;44310;48.106;12.008;2022-12-18T14:10:35;14.00;80.90
58519;DHT22;44310;48.106;12.008;2022-12-18T14:13:26;14.10;81.70
58519;DHT22;44310;48.106;12.008;2022-12-18T14:15:56;14.20;82.70
58519;DHT22;44310;48.106;12.008;2022-12-18T14:18:52;14.10;80.20
58519;DHT22;44310;48.106;12.008;2022-12-18T14:21:26;14.00;81.10
58519;DHT22;44310;48.106;12.008;2022-12-18T14:24:16;13.90;80.50
58519;DHT22;44310;48.106;12.008;2022-12-18T14:26:47;14.00;81.40
58519;DHT22;44310;48.106;12.008;2022-12-18T14:29:30;14.00;82.20
58519;DHT22;44310;48.106;12.008;2022-12-18T14:32:09;14.20;82.90
58519;DHT22;44310;48.106;12.008;2022-12-18T14:34:53;14.30;83.20
58519;DHT22;44310;48.106;12.008;2022-12-18T14:37:26;14.40;84.00
58519;DHT22;44310;48.106;12.008;2022-12-18T14:40:02;14.50;85.10
58519;DHT22;44310;48.106;12.008;2022-12-18T14:42:37;14.60;85.00
58519;DHT22;44310;48.106;12.008;2022-12-18T14:45:36;14.70;85.70
58519;DHT22;44310;48.106;12.008;2022-12-18T14:53:40;14.90;87.80
58519;DHT22;44310;48.106;12.008;2022-12-18T14:56:19;14.80;88.30
58519;DHT22;44310;48.106;12.008;2022-12-18T15:01:36;15.00;89.10
58519;DHT22;44310;48.106;12.008;2022-12-18T15:04:05;15.00;89.50
58519;DHT22;44310;48.106;12.008;2022-12-18T15:07:03;15.00;89.90
58519;DHT22;44310;48.106;12.008;2022-12-18T15:09:31;15.00;89.80
58519;DHT22;44310;48.106;12.008;2022-12-18T15:12:00;15.00;90.10
58519;DHT22;44310;48.106;12.008;2022-12-18T15:14:39;15.00;90.20
58519;DHT22;44310;48.106;12.008;2022-12-18T15:17:19;15.00;90.40
58519;DHT22;44310;48.106;12.008;2022-12-18T15:19:48;15.10;90.50
58519;DHT22;44310;48.106;12.008;2022-12-18T15:22:19;15.10;90.60
58519;DHT22;44310;48.106;12.008;2022-12-18T15:24:48;15.20;90.80
58519;DHT22;44310;48.106;12.008;2022-12-18T15:27:23;15.10;90.90
58519;DHT22;44310;48.106;12.008;2022-12-18T15:32:27;15.10;91.10
58519;DHT22;44310;48.106;12.008;2022-12-18T15:37:43;15.20;91.30
58519;DHT22;44310;48.106;12.008;2022-12-18T15:40:15;15.20;91.30
58519;DHT22;44310;48.106;12.008;2022-12-18T15:42:44;15.30;91.30
58519;DHT22;44310;48.106;12.008;2022-12-18T15:45:29;15.20;91.40
58519;DHT22;44310;48.106;12.008;2022-12-18T15:47:57;15.30;91.50
58519;DHT22;44310;48.106;12.008;2022-12-18T15:50:24;15.30;91.60
58519;DHT22;44310;48.106;12.008;2022-12-18T15:52:54;15.30;91.60
58519;DHT22;44310;48.106;12.008;2022-12-18T15:55:23;15.30;91.60
58519;DHT22;44310;48.106;12.008;2022-12-18T15:58:10;15.30;91.60
58519;DHT22;44310;48.106;12.008;2022-12-18T16:00:40;15.30;91.60
58519;DHT22;44310;48.106;12.008;2022-12-18T16:03:09;15.30;91.70
58519;DHT22;44310;48.106;12.008;2022-12-18T16:05:36;15.30;91.70
58519;DHT22;44310;48.106;12.008;2022-12-18T16:08:04;15.30;91.80
58519;DHT22;44310;48.106;12.008;2022-12-18T16:10:31;15.30;91.80
58519;DHT22;44310;48.106;12.008;2022-12-18T16:12:58;15.30;91.80
58519;DHT22;44310;48.106;12.008;2022-12-18T16:15:25;15.30;91.90
58519;DHT22;44310;48.106;12.008;2022-12-18T16:17:52;15.30;92.00
58519;DHT22;44310;48.106;12.008;2022-12-18T16:20:21;15.30;92.20
58519;DHT22;44310;48.106;12.008;2022-12-18T16:22:49;15.30;92.30
58519;DHT22;44310;48.106;12.008;2022-12-18T16:25:25;15.30;92.30
58519;DHT22;44310;48.106;12.008;2022-12-18T16:27:54;15.30;92.40
58519;DHT22;44310;48.106;12.008;2022-12-18T16:30:24;15.40;92.50
58519;DHT22;44310;48.106;12.008;2022-12-18T16:32:54;15.30;92.50
58519;DHT22;44310;48.106;12.008;2022-12-18T16:35:24;15.30;92.50
58519;DHT22;44310;48.106;12.008;2022-12-18T16:37:51;15.40;92.60
58519;DHT22;44310;48.106;12.008;2022-12-18T16:40:19;15.30;92.50
58519;DHT22;44310;48.106;12.008;2022-12-18T16:42:46;15.30;92.60
58519;DHT22;44310;48.106;12.008;2022-12-18T16:45:15;15.30;92.50
58519;DHT22;44310;48.106;12.008;2022-12-18T16:47:43;15.30;92.60
58519;DHT22;44310;48.106;12.008;2022-12-18T16:50:11;15.30;92.60
58519;DHT22;44310;48.106;12.008;2022-12-18T16:52:38;15.30;92.70
58519;DHT22;44310;48.106;12.008;2022-12-18T16:55:06;15.20;92.70
58519;DHT22;44310;48.106;12.008;2022-12-18T16:57:33;15.20;92.80
58519;DHT22;44310;48.106;12.008;2022-12-18T17:00:00;15.20;93.10
58519;DHT22;44310;48.106;12.008;2022-12-18T17:02:32;15.20;93.10